Flight Track Log - Related Links

Times and Time Zones

All times are in EDT time to prevent confusion due to time zone crossing. See the DAL6197 flight status page for this flight to view local times or setup timezone preferences in your user account.

Time Position Orientation Groundspeed Altitude Reporting Facility
EDT Latitude Longitude Course Direction KTS MPH feet Rate Location/Type
Sat 01:51:46 PM 44.8833 -63.5000 245° Southwest 140 161 2,300  Level Moncton Center
Sat 01:52:46 PM 44.9000 -63.6000 283° West 210 242 4,800 2,750 Climbing Moncton Center
Sat 01:53:46 PM 44.9000 -63.6833 270° West 260 299 7,800 2,850 Climbing Moncton Center
Sat 01:54:46 PM 44.9000 -63.7833 270° West 270 311 10,500 2,800 Climbing Moncton Center
Sat 01:55:46 PM 44.9000 -63.9000 270° West 280 322 13,400 2,700 Climbing Moncton Center
Sat 01:56:00 PM 44.7568 -63.8853 245° Southwest  Level Estimated
Sat 01:56:46 PM 44.9000 -64.0167 270° West 290 334 15,900  Level Moncton Center
Sat 01:57:46 PM 44.9000 -64.1333 270° West 310 357 18,000 2,300 Climbing Moncton Center
Sat 01:58:46 PM 44.9000 -64.2833 270° West 320 368 20,500 2,300 Climbing Moncton Center
Sat 01:59:46 PM 44.9000 -64.4000 270° West 330 380 22,600 2,100 Climbing Moncton Center
Sat 02:00:46 PM 44.9000 -64.5333 270° West 330 380 24,700 1,850 Climbing Moncton Center
Sat 02:01:46 PM 44.9000 -64.6500 270° West 340 391 26,300 1,550 Climbing Moncton Center
Sat 02:02:46 PM 44.9000 -64.8000 270° West 350 403 27,800 1,350 Climbing Moncton Center
Sat 02:03:46 PM 44.9000 -64.9333 270° West 360 414 29,000 1,200 Climbing Moncton Center
Sat 02:04:46 PM 44.9000 -65.1000 270° West 380 437 30,200 1,100 Climbing Moncton Center
Sat 02:05:46 PM 44.9000 -65.2500 270° West 390 449 31,200 1,000 Climbing Moncton Center
Sat 02:06:46 PM 44.9167 -65.4167 278° West 400 460 32,200 1,000 Climbing Moncton Center
Sat 02:07:46 PM 44.9167 -65.5833 270° West 410 472 33,200 900 Climbing Moncton Center
Sat 02:08:46 PM 44.9167 -65.7500 270° West 410 472 34,000 400 Climbing Moncton Center
Sat 02:09:46 PM 44.9167 -65.8833 270° West 410 472 34,000  Level Moncton Center
Sat 02:10:46 PM 44.9167 -66.0667 270° West 410 472 34,000  Level Moncton Center
Sat 02:11:46 PM 44.8833 -66.2167 253° West 410 472 34,000  Level Moncton Center
Sat 02:12:46 PM 44.8833 -66.3833 270° West 400 460 34,000  Level Moncton Center
Sat 02:13:46 PM 44.8833 -66.5500 270° West 410 472 34,000  Level Moncton Center
Sat 02:14:46 PM 44.8833 -66.7167 270° West 410 472 34,000  Level Moncton Center
Sat 02:15:46 PM 44.9000 -66.8500 280° West 410 472 34,000  Level Moncton Center
Sat 02:16:46 PM 44.8667 -67.0167 254° West 410 472 34,000  Level Moncton Center
Sat 02:17:46 PM 44.8833 -67.1833 278° West 420 483 34,000  Level Moncton Center
Sat 02:18:46 PM 44.8833 -67.3500 270° West 420 483 34,000  Level Moncton Center
Sat 02:19:46 PM 44.8833 -67.5167 270° West 420 483 34,000  Level Moncton Center
Sat 02:20:28 PM 44.8842 -67.6314 271° West 425 489 34,000  Level Boston Center
Sat 02:21:28 PM 44.8783 -67.7961 267° West 425 489 34,000  Level Boston Center
Sat 02:22:28 PM 44.8744 -67.9606 268° West 425 489 34,000  Level Boston Center
Sat 02:23:28 PM 44.8681 -68.1194 267° West 425 489 34,000  Level Boston Center
Sat 02:24:28 PM 44.8658 -68.2836 269° West 425 489 34,000  Level Boston Center
Sat 02:25:28 PM 44.8589 -68.4394 266° West 420 483 34,000  Level Boston Center
Sat 02:26:28 PM 44.8536 -68.5981 267° West 415 478 34,000  Level Boston Center
Sat 02:27:28 PM 44.8461 -68.7508 266° West 405 466 34,000  Level Boston Center
Sat 02:28:28 PM 44.8281 -68.9042 261° West 405 466 34,000  Level Boston Center
Sat 02:29:28 PM 44.7839 -69.0297 244° Southwest 399 459 34,000  Level Boston Center
Sat 02:30:28 PM 44.7275 -69.1703 241° Southwest 399 459 34,000  Level Boston Center
Sat 02:31:28 PM 44.6731 -69.3078 241° Southwest 409 471 34,000  Level Boston Center
Sat 02:32:28 PM 44.6183 -69.4447 241° Southwest 415 478 34,000  Level Boston Center
Sat 02:33:28 PM 44.5614 -69.5847 240° Southwest 415 478 34,000  Level Boston Center
Sat 02:34:28 PM 44.5044 -69.7242 240° Southwest 415 478 34,000  Level Boston Center
Sat 02:35:28 PM 44.4472 -69.8664 241° Southwest 415 478 34,000  Level Boston Center
Sat 02:36:28 PM 44.3881 -70.0172 241° Southwest 415 478 34,000  Level Boston Center
Sat 02:37:28 PM 44.3283 -70.1589 240° Southwest 415 478 34,000  Level Boston Center
Sat 02:38:28 PM 44.2728 -70.3003 241° Southwest 415 478 34,000  Level Boston Center
Sat 02:39:28 PM 44.2147 -70.4414 240° Southwest 420 483 34,000  Level Boston Center
Sat 02:40:28 PM 44.1567 -70.5822 240° Southwest 425 489 34,000  Level Boston Center
Sat 02:41:28 PM 44.0983 -70.7200 240° Southwest 425 489 34,000  Level Boston Center
Sat 02:42:28 PM 44.0381 -70.8661 240° Southwest 425 489 34,000  Level Boston Center
Sat 02:43:28 PM 43.9794 -71.0033 239° Southwest 425 489 34,000  Level Boston Center
Sat 02:44:28 PM 43.9206 -71.1458 240° Southwest 425 489 34,000  Level Boston Center
Sat 02:45:28 PM 43.8617 -71.2883 240° Southwest 425 489 34,000  Level Boston Center
Sat 02:46:28 PM 43.8006 -71.4275 239° Southwest 425 489 34,000  Level Boston Center
Sat 02:47:28 PM 43.7433 -71.5664 240° Southwest 425 489 34,000  Level Boston Center
Sat 02:48:28 PM 43.6839 -71.7050 239° Southwest 425 489 34,000  Level Boston Center
Sat 02:49:28 PM 43.6264 -71.8378 239° Southwest 425 489 34,000  Level Boston Center
Sat 02:50:28 PM 43.5686 -71.9758 240° Southwest 425 489 34,000  Level Boston Center
Sat 02:51:28 PM 43.5108 -72.1108 239° Southwest 425 489 34,000  Level Boston Center
Sat 02:52:28 PM 43.4506 -72.2428 238° Southwest 425 489 34,000 -600 Level Boston Center
Sat 02:53:28 PM 43.3903 -72.3831 239° Southwest 425 489 32,800 -1,350 Descending Boston Center
Sat 02:54:28 PM 43.3278 -72.5286 239° Southwest 430 495 31,300 -1,800 Descending Boston Center
Sat 02:55:28 PM 43.2608 -72.6767 238° Southwest 448 516 29,200 -1,650 Descending Boston Center
Sat 02:56:28 PM 43.1917 -72.8272 238° Southwest 459 528 28,000 -600 Descending Boston Center
Sat 02:57:28 PM 43.1308 -72.9578 237° Southwest 459 528 28,000 -250 Level Boston Center
Sat 02:58:28 PM 43.0633 -73.1192 240° Southwest 454 522 27,500 -950 Descending Boston Center
Sat 02:59:28 PM 42.9978 -73.2606 238° Southwest 449 517 26,100 -1,300 Descending Boston Center
Sat 03:00:28 PM 42.9383 -73.3844 237° Southwest 449 517 24,900 -1,300 Descending Boston Center
Sat 03:01:28 PM 42.8725 -73.5250 237° Southwest 449 517 23,500 -1,500 Descending Boston Center
Sat 03:02:28 PM 42.7756 -73.6367 220° Southwest 436 502 21,900 -1,300 Descending Boston Center
Sat 03:03:28 PM 42.6525 -73.6428 182° South 404 465 20,900 -900 Descending Boston Center
Sat 03:04:28 PM 42.5358 -73.6347 177° South 404 465 20,100 -750 Descending Boston Center
Sat 03:05:28 PM 42.4256 -73.6297 178° South 409 471 19,400 -700 Descending Boston Center
Sat 03:06:28 PM 42.3381 -73.6225 177° South 376 433 18,700 -700 Descending Boston Center
Sat 03:07:28 PM 42.2339 -73.6206 179° South 353 406 18,000 -600 Descending Boston Center
Sat 03:08:28 PM 42.1464 -73.6189 179° South 347 399 17,500 -950 Descending Boston Center
Sat 03:09:28 PM 42.0542 -73.6508 194° South 341 392 16,100 -1,200 Descending Boston Center
Sat 03:10:28 PM 41.9828 -73.7136 213° Southwest 326 375 15,100 -1,100 Descending Boston Center
Sat 03:11:28 PM 41.9689 -73.8167 260° West 278 320 13,900 -1,400 Descending Boston Center
Sat 03:12:28 PM 41.9592 -73.9253 263° West 289 333 12,300 -1,500 Descending Boston Center
Sat 03:13:28 PM 41.9350 -74.0253 252° West 289 333 10,900 -1,150 Descending Boston Center
Sat 03:14:28 PM 41.8581 -74.0122 173° South 238 274 10,000 -400 Descending Boston Center
Sat 03:15:28 PM 41.7900 -73.9519 147° Southeast 253 291 10,100 -100 Climbing Boston Center
Sat 03:16:28 PM 41.7222 -73.8808 142° Southeast 290 334 9,800 -550 Descending Boston Center
Sat 03:17:28 PM 41.6519 -73.8264 150° Southeast 300 345 9,000 -316 Descending Boston Center
Sat 03:18:41 PM 41.5500 -73.8167 176° South 297 342 9,100 -45 Climbing New York TRACON
Sat 03:19:41 PM 41.4667 -73.8000 171° South 295 339 8,900 -1,100 Descending New York TRACON
Sat 03:20:41 PM 41.3833 -73.8000 180° South 291 335 6,900 -1,267 Descending New York TRACON
Sat 03:22:00 PM 41.2678 -73.7259 151° Southeast  Level FlightAware Approximate
Sat 03:22:41 PM 41.2500 -73.7333 151° Southeast 272 313 5,100  Level New York TRACON
Sat 03:23:41 PM 41.1667 -73.7167 171° South 270 311 4,100 -550 Descending New York TRACON
Sat 03:24:41 PM 41.1000 -73.6833 159° South 269 310 4,000  Descending New York TRACON
Sat 03:25:41 PM 41.0333 -73.6667 169° South 270 311 4,100  Climbing New York TRACON
Sat 03:27:41 PM 40.8833 -73.6500 175° South 261 300 4,000 -33 Descending New York TRACON
Sat 03:28:41 PM 40.8167 -73.6833 201° Southwest 264 304 4,000 50 Level New York TRACON
Sat 03:29:41 PM 40.7833 -73.7500 237° Southwest 257 296 4,100  Climbing New York TRACON
Sat 03:30:41 PM 40.7833 -73.8500 270° West 255 293 4,000 -50 Descending New York TRACON
Sat 03:31:41 PM 40.7667 -73.9333 255° West 256 295 4,000  Level New York TRACON
Sat 03:33:00 PM 40.7667 -73.8667 90° East  Level FlightAware Approximate
Sat 03:33:35 PM 40.7167 -74.0333 90° East 198 228 4,000  Level New York TRACON

Login

Don't have an account? Register now (free) for customized features, flight alerts, and more!